Cleveland, Ohio
Traffic Map
Current Weather Conditions
Cleveland, Ohio
Clear
Clear
66°
Feels Like: 66°
Wind Chill: 66° Ceiling: Unl
Heat Index: 66° Visibility: 10mi
Dew Point: 48° Wind: 14mph
Humidity: 52% Direction: 160° (SSE)
Pressure: 30.21in Gusts: 0mph
Raw Report DataKBKL 220153Z 16012KT 10SM CLR 19/09 A3021 RMK AO2 SLP229 T01890089
Traffic Incident Summary
Active as of:
Severity:
Category:
InformationThere was an issue retrieving the traffic information for this location. Please try a different location or try again shortly.
Advertisements